LIPE Airport Information

Runway Information
Runway 12 Length 9186 ft width 150 ft
Elevation 120 ft Threshold 1007 ft Heading 117
Runway 30 Length 9186 ft Width 150 ft
Elevation 120 ft Threshold 1188 ft Heading 297
Airport Frequencies
Type APP Name APP Frequency 120.1 MHZ
Type ATIS Name ATIS Frequency 134.875 MHZ
Type GND Name GND Frequency 129.925 MHZ
Type TWR Name TWR Frequency 120.8 MHZ
Airport Navaids
Type VOR-DME Name Bologna Frequency 112200 KHZ
Type NDB Name Bologna Frequency 413 KHZ
Airport Weather Information & NOTAM
ADDS - METARS form results

(1106 UTC 19 September 2018)
Data provider http://aviationweather.gov/metar/data/
 
METAR text: LIPE 191050Z 34003KT 260V030 9999 FEW040 26/17 Q1020
Conditions at: LIPE (BOLOGNA/BORGO (A, IT) observed 1050 UTC 19 September 2018
Temperature: 26.0°C (79°F)
Dewpoint: 17.0°C (63°F) [RH = 58%]
Pressure (altimeter): 30.12 inches Hg (1020.0 mb)
Winds: from the NNW (340 degrees) at 3 MPH (3 knots; 1.5 m/s)
Visibility: 6 or more miles (10+ km)
Ceiling: at least 12,000 feet AGL
Clouds: few clouds at 4000 feet AGL
Weather: no significant weather observed at this time

METAR text: LIPE 191020Z VRB03KT CAVOK 26/17 Q1020
Conditions at: LIPE (BOLOGNA/BORGO (A, IT) observed 1020 UTC 19 September 2018
Temperature: 26.0°C (79°F)
Dewpoint: 17.0°C (63°F) [RH = 58%]
Pressure (altimeter): 30.12 inches Hg (1020.0 mb)
Winds: variable direction winds at 3 MPH (3 knots; 1.5 m/s)
Visibility: 6 or more miles (10+ km)
Ceiling: ceiling and visibility are OK
Clouds: unknown
Weather: no significant weather observed at this time

Forecast for: LIPE (BOLOGNA/BORGO (A, IT)
Text: TAF LIPE 190500Z 1906/2006 VRB05KT 9999 SCT060
Forecast period: 0600 UTC 19 September 2018 to 0600 UTC 20 September 2018
Forecast type: FROM: standard forecast or significant change
Winds: variable direction winds at 6 MPH (5 knots; 2.6 m/s)
Visibility: 6 or more miles 10+ km)
Ceiling: at least 12,000 feet AGL
Clouds: scattered clouds at 6000 feet AGL
Weather: no significant weather forecast for this period
Text: TEMPO 1912/1918 TSRA
Forecast period: 1200 to 1800 UTC 19 September 2018
Forecast type: TEMPORARY: The following changes expected for less than half the time period
Visibility: missing
Ceiling: unknown
Clouds: missing
Weather: TSRA  (rain associated with thunderstorm(s))